Time;durP1;ratioP1;P1;durP2;ratioP2;P2;SDS_P1;SDS_P2;PMS_P1;PMS_P2;Temp;Humidity;BMP_temperature;BMP_pressure;BME280_temperature;BME280_humidity;BME280_pressure;Samples;Min_cycle;Max_cycle;Signal;HPM_P1;HPM_P2
2023/03/22 00:00:57;;;;;;;68.10;61.50;;;;;;;-141.22;100.00;65034.22;4939604;29;20523;-49
2023/03/22 00:03:26;;;;;;;69.20;63.17;;;;;;;-141.22;100.00;65034.22;4936122;28;20461;-44
2023/03/22 00:05:57;;;;;;;66.10;60.43;;;;;;;-141.22;100.00;65034.22;4939248;29;20432;-46
2023/03/22 00:08:25;;;;;;;72.57;65.60;;;;;;;-141.22;100.00;65034.22;4938288;29;20943;-45
2023/03/22 00:10:52;;;;;;;69.43;63.17;;;;;;;-141.22;100.00;65034.22;4938381;29;20456;-47
2023/03/22 00:13:20;;;;;;;68.70;62.57;;;;;;;-141.22;100.00;65034.22;4936277;28;20879;-44
2023/03/22 00:15:48;;;;;;;65.63;59.73;;;;;;;-141.22;100.00;65034.22;4938043;29;20985;-43
2023/03/22 00:18:17;;;;;;;65.67;60.17;;;;;;;-141.22;100.00;65034.22;4938775;29;20460;-46
2023/03/22 00:20:50;;;;;;;66.63;60.27;;;;;;;-141.22;100.00;65034.22;4938214;29;20488;-48
2023/03/22 00:23:17;;;;;;;66.37;60.37;;;;;;;-141.22;100.00;65034.22;4935158;28;20460;-46
2023/03/22 00:25:45;;;;;;;64.13;58.30;;;;;;;-141.22;100.00;65034.22;4935367;29;20436;-44
2023/03/22 00:28:14;;;;;;;62.63;57.50;;;;;;;-141.22;100.00;65034.22;4937275;29;20469;-44
2023/03/22 00:30:43;;;;;;;66.83;60.93;;;;;;;-141.22;100.00;65034.22;4938491;29;20471;-47
2023/03/22 00:33:10;;;;;;;68.20;62.20;;;;;;;-141.22;100.00;65034.22;4937737;28;20456;-44
2023/03/22 00:35:38;;;;;;;66.87;60.27;;;;;;;-141.22;100.00;65034.22;4938451;29;20428;-44
2023/03/22 00:38:13;;;;;;;66.17;60.23;;;;;;;-141.22;100.00;65034.22;4938047;29;20484;-52
2023/03/22 00:40:41;;;;;;;66.77;60.47;;;;;;;-141.22;100.00;65034.22;4937770;29;20505;-47
2023/03/22 00:43:08;;;;;;;66.17;60.67;;;;;;;-141.22;100.00;65034.22;4936725;28;20461;-47
2023/03/22 00:45:39;;;;;;;62.47;57.27;;;;;;;-141.22;100.00;65034.22;4938003;29;20437;-47
2023/03/22 00:48:08;;;;;;;63.97;58.47;;;;;;;-141.22;100.00;65034.22;4937642;29;20491;-44
2023/03/22 00:50:36;;;;;;;63.57;57.87;;;;;;;-141.22;100.00;65034.22;4937768;29;20959;-52
2023/03/22 00:53:05;;;;;;;60.77;55.40;;;;;;;-141.22;100.00;65034.22;4937003;28;20521;-47
2023/03/22 00:55:34;;;;;;;61.93;56.77;;;;;;;-141.22;100.00;65034.22;4937751;29;20488;-47
2023/03/22 00:58:02;;;;;;;61.23;56.03;;;;;;;-141.22;100.00;65034.22;4937221;29;20428;-43
2023/03/22 01:00:32;;;;;;;63.47;58.00;;;;;;;-141.22;100.00;65034.22;4937159;29;21051;-47
2023/03/22 01:03:02;;;;;;;62.57;57.10;;;;;;;-141.22;100.00;65034.22;4934949;28;20438;-44
2023/03/22 01:05:32;;;;;;;61.07;55.93;;;;;;;-141.22;100.00;65034.22;4937751;29;20911;-48
2023/03/22 01:08:05;;;;;;;59.03;53.63;;;;;;;-141.22;100.00;65034.22;4937728;29;20536;-45
2023/03/22 01:10:34;;;;;;;58.07;52.83;;;;;;;-141.22;100.00;65034.22;4937754;29;20449;-49
2023/03/22 01:13:02;;;;;;;59.13;54.40;;;;;;;-141.22;100.00;65034.22;4937499;28;20448;-44
2023/03/22 01:15:29;;;;;;;61.87;56.30;;;;;;;-141.22;100.00;65034.22;4937286;29;20523;-46
2023/03/22 01:17:57;;;;;;;59.57;54.33;;;;;;;-141.22;100.00;65034.22;4938196;29;20539;-44
2023/03/22 01:20:25;;;;;;;59.37;54.23;;;;;;;-141.22;100.00;65034.22;4938081;29;20463;-49
2023/03/22 01:22:53;;;;;;;59.67;54.73;;;;;;;-141.22;100.00;65034.22;4937836;28;20511;-50
2023/03/22 01:25:20;;;;;;;59.20;54.23;;;;;;;-141.22;100.00;65034.22;4940364;29;20507;-43
2023/03/22 01:27:49;;;;;;;57.73;52.80;;;;;;;-141.22;100.00;65034.22;4942496;29;20451;-46
2023/03/22 01:30:17;;;;;;;59.83;54.47;;;;;;;-141.22;100.00;65034.22;4941460;29;20481;-48
2023/03/22 01:32:45;;;;;;;59.10;53.97;;;;;;;-141.22;100.00;65034.22;4942200;29;21079;-45
2023/03/22 01:35:13;;;;;;;58.77;54.10;;;;;;;-141.22;100.00;65034.22;4940996;29;20456;-47
2023/03/22 01:37:41;;;;;;;58.33;53.23;;;;;;;-141.22;100.00;65034.22;4942408;29;20938;-44
2023/03/22 01:40:11;;;;;;;58.50;53.17;;;;;;;-141.22;100.00;65034.22;4941818;29;20665;-43
2023/03/22 01:42:39;;;;;;;57.53;52.50;;;;;;;-141.22;100.00;65034.22;4941677;29;20887;-44
2023/03/22 01:45:33;;;;;;;57.40;52.93;;;;;;;-141.22;100.00;65034.22;4941558;28;20474;-44
2023/03/22 01:48:05;;;;;;;57.23;52.23;;;;;;;-141.22;100.00;65034.22;4941627;29;20429;-44
2023/03/22 01:50:33;;;;;;;56.07;51.57;;;;;;;-141.22;100.00;65034.22;4941897;29;20452;-45
2023/03/22 01:53:04;;;;;;;56.53;51.63;;;;;;;-141.22;100.00;65034.22;4941177;28;20447;-50
2023/03/22 01:55:33;;;;;;;54.63;50.33;;;;;;;-141.22;100.00;65034.22;4941969;29;21006;-44
2023/03/22 01:58:02;;;;;;;55.93;51.00;;;;;;;-141.22;100.00;65034.22;4941945;29;20433;-48
2023/03/22 02:00:33;;;;;;;58.40;53.53;;;;;;;-141.22;100.00;65034.22;4942047;29;20456;-47
2023/03/22 02:03:00;;;;;;;58.13;52.93;;;;;;;-141.22;100.00;65034.22;4940959;28;20433;-48
2023/03/22 02:05:29;;;;;;;59.27;53.70;;;;;;;-141.22;100.00;65034.22;4941416;29;20803;-44
2023/03/22 02:07:57;;;;;;;57.70;52.50;;;;;;;-141.22;100.00;65034.22;4941343;29;20437;-44
2023/03/22 02:10:27;;;;;;;57.03;52.10;;;;;;;-141.22;100.00;65034.22;4940853;29;20483;-44
2023/03/22 02:13:08;;;;;;;58.27;53.40;;;;;;;-141.22;100.00;65034.22;4941275;28;20438;-48
2023/03/22 02:15:45;;;;;;;61.33;55.83;;;;;;;-141.22;100.00;65034.22;4940839;29;20433;-44
2023/03/22 02:18:25;;;;;;;59.70;54.50;;;;;;;-141.22;100.00;65034.22;4940102;29;20432;-45
2023/03/22 02:21:28;;;;;;;58.17;53.10;;;;;;;-141.22;100.00;65034.22;4937841;29;20498;-47
2023/03/22 02:24:22;;;;;;;58.90;53.80;;;;;;;-141.22;100.00;65034.22;4933651;28;20837;-46
2023/03/22 02:27:15;;;;;;;56.40;51.87;;;;;;;-141.22;100.00;65034.22;4896748;29;20440;-47
2023/03/22 02:37:53;;;;;;;56.57;51.50;;;;;;;-141.22;100.00;65034.22;4928970;29;20615;-43
2023/03/22 02:40:27;;;;;;;54.50;49.97;;;;;;;-141.22;100.00;65034.22;4940509;29;20461;-44
2023/03/22 02:43:03;;;;;;;55.43;50.60;;;;;;;-141.22;100.00;65034.22;4940044;29;20432;-50
2023/03/22 02:45:36;;;;;;;55.47;50.30;;;;;;;-141.22;100.00;65034.22;4938209;28;20476;-50
2023/03/22 02:48:09;;;;;;;55.73;50.73;;;;;;;-141.22;100.00;65034.22;4933497;29;20920;-44
2023/03/22 02:50:41;;;;;;;55.87;50.80;;;;;;;-141.22;100.00;65034.22;4930328;29;21085;-48
2023/03/22 02:53:15;;;;;;;54.83;49.93;;;;;;;-141.22;100.00;65034.22;4939579;29;20821;-44
2023/03/22 02:55:48;;;;;;;55.80;51.07;;;;;;;-141.22;100.00;65034.22;4940111;28;21002;-49
2023/03/22 02:58:20;;;;;;;54.57;49.30;;;;;;;-141.22;100.00;65034.22;4940371;29;20440;-44
2023/03/22 03:00:51;;;;;;;58.23;53.33;;;;;;;-141.22;100.00;65034.22;4940600;29;20827;-49
2023/03/22 03:03:20;;;;;;;54.80;50.63;;;;;;;-141.22;100.00;65034.22;4939723;29;20487;-43
2023/03/22 03:05:53;;;;;;;53.40;49.07;;;;;;;-141.22;100.00;65034.22;4940058;29;20479;-44
2023/03/22 03:08:22;;;;;;;55.40;50.63;;;;;;;-141.22;100.00;65034.22;4940271;29;20432;-44
2023/03/22 03:10:53;;;;;;;55.37;50.53;;;;;;;-141.22;100.00;65034.22;4940105;29;20480;-46
2023/03/22 03:13:21;;;;;;;56.03;51.27;;;;;;;-141.22;100.00;65034.22;4939402;29;20437;-46
2023/03/22 03:15:52;;;;;;;53.43;48.57;;;;;;;-141.22;100.00;65034.22;4938806;28;20472;-47
2023/03/22 03:18:34;;;;;;;53.27;48.37;;;;;;;-141.22;100.00;65034.22;4939118;29;20432;-47
2023/03/22 03:21:07;;;;;;;56.93;51.67;;;;;;;-141.22;100.00;65034.22;4939654;29;20436;-50
2023/03/22 03:23:48;;;;;;;56.40;51.70;;;;;;;-141.22;100.00;65034.22;4939224;29;20524;-44
2023/03/22 03:26:24;;;;;;;53.77;49.27;;;;;;;-141.22;100.00;65034.22;4939044;29;20448;-46
2023/03/22 03:28:58;;;;;;;56.53;51.57;;;;;;;-141.22;100.00;65034.22;4938746;29;20436;-49
2023/03/22 03:31:34;;;;;;;57.83;52.60;;;;;;;-141.22;100.00;65034.22;4938702;29;20444;-45
2023/03/22 03:34:10;;;;;;;55.70;50.87;;;;;;;-141.22;100.00;65034.22;4938632;28;20511;-48
2023/03/22 03:36:44;;;;;;;57.87;52.87;;;;;;;-141.22;100.00;65034.22;4938882;29;20535;-44
2023/03/22 03:39:15;;;;;;;55.97;51.37;;;;;;;-141.22;100.00;65034.22;4939010;29;20461;-44
2023/03/22 03:41:47;;;;;;;58.13;53.13;;;;;;;-141.22;100.00;65034.22;4939008;29;20495;-49
2023/03/22 03:44:16;;;;;;;61.60;55.90;;;;;;;-141.22;100.00;65034.22;4939085;28;20995;-44
2023/03/22 03:46:45;;;;;;;59.00;53.70;;;;;;;-141.22;100.00;65034.22;4939891;29;20433;-44
2023/03/22 03:49:15;;;;;;;58.60;53.70;;;;;;;-141.22;100.00;65034.22;4937743;29;20999;-50
2023/03/22 03:51:48;;;;;;;58.67;53.90;;;;;;;-141.22;100.00;65034.22;4938307;29;20447;-47
2023/03/22 03:54:16;;;;;;;57.57;52.87;;;;;;;-141.22;100.00;65034.22;4938630;28;20460;-45
2023/03/22 03:56:46;;;;;;;57.40;52.60;;;;;;;-141.22;100.00;65034.22;4938808;29;20433;-44
2023/03/22 03:59:15;;;;;;;59.83;54.23;;;;;;;-141.22;100.00;65034.22;4938402;29;20473;-45
2023/03/22 04:01:48;;;;;;;58.40;53.90;;;;;;;-141.22;100.00;65034.22;4938426;29;20466;-48
2023/03/22 04:04:17;;;;;;;57.63;53.03;;;;;;;-141.22;100.00;65034.22;4938481;28;20493;-44
2023/03/22 04:06:45;;;;;;;58.37;53.40;;;;;;;-141.22;100.00;65034.22;4938785;29;20444;-49
2023/03/22 04:09:13;;;;;;;58.50;53.50;;;;;;;-141.22;100.00;65034.22;4938501;29;20460;-50
2023/03/22 04:11:41;;;;;;;59.23;54.10;;;;;;;-141.22;100.00;65034.22;4938613;29;20480;-43
2023/03/22 04:14:10;;;;;;;56.47;51.77;;;;;;;-141.22;100.00;65034.22;4938312;28;20471;-43
2023/03/22 04:16:38;;;;;;;57.90;53.00;;;;;;;-141.22;100.00;65034.22;4938394;29;20456;-46
2023/03/22 04:19:05;;;;;;;56.13;51.17;;;;;;;-141.22;100.00;65034.22;4938781;29;20453;-48
2023/03/22 04:21:33;;;;;;;56.03;50.93;;;;;;;-141.22;100.00;65034.22;4938267;29;20892;-44
2023/03/22 04:24:01;;;;;;;54.27;49.87;;;;;;;-141.22;100.00;65034.22;4938099;28;20432;-46
2023/03/22 04:26:28;;;;;;;52.70;48.50;;;;;;;-141.22;100.00;65034.22;4938534;29;20449;-48
2023/03/22 04:28:57;;;;;;;53.70;49.40;;;;;;;-141.22;100.00;65034.22;4938356;29;20848;-47
2023/03/22 04:31:26;;;;;;;53.17;48.83;;;;;;;-141.22;100.00;65034.22;4938315;29;20480;-44
2023/03/22 04:33:54;;;;;;;53.80;49.30;;;;;;;-141.22;100.00;65034.22;4936925;28;20775;-48
2023/03/22 04:36:23;;;;;;;54.40;49.90;;;;;;;-141.22;100.00;65034.22;4937328;29;20432;-49
2023/03/22 04:38:51;;;;;;;58.13;53.20;;;;;;;-141.22;100.00;65034.22;4938118;29;20428;-45
2023/03/22 04:41:19;;;;;;;52.67;48.37;;;;;;;-141.22;100.00;65034.22;4938168;29;20429;-46
2023/03/22 04:43:49;;;;;;;52.30;48.20;;;;;;;-141.22;100.00;65034.22;4937751;28;20448;-46
2023/03/22 04:46:20;;;;;;;55.13;50.43;;;;;;;-141.22;100.00;65034.22;4939174;29;20440;-45
2023/03/22 04:48:49;;;;;;;53.53;49.13;;;;;;;-141.22;100.00;65034.22;4938574;29;20433;-44
2023/03/22 04:51:16;;;;;;;54.60;49.87;;;;;;;-141.22;100.00;65034.22;4938076;29;20879;-47
2023/03/22 04:53:44;;;;;;;55.60;50.87;;;;;;;-141.22;100.00;65034.22;4937388;28;20440;-44
2023/03/22 04:56:14;;;;;;;57.63;52.63;;;;;;;-141.22;100.00;65034.22;4938141;29;20437;-43
2023/03/22 04:58:43;;;;;;;58.10;53.10;;;;;;;-141.22;100.00;65034.22;4937888;29;20989;-44
2023/03/22 05:01:12;;;;;;;54.13;49.87;;;;;;;-141.22;100.00;65034.22;4937947;29;20440;-44
2023/03/22 05:03:41;;;;;;;55.87;50.87;;;;;;;-141.22;100.00;65034.22;4938220;29;20431;-44
2023/03/22 05:06:11;;;;;;;57.00;52.10;;;;;;;-141.22;100.00;65034.22;4937165;29;20460;-46
2023/03/22 05:08:41;;;;;;;55.90;51.13;;;;;;;-141.22;100.00;65034.22;4938272;29;20835;-45
2023/03/22 05:11:11;;;;;;;57.07;52.13;;;;;;;-141.22;100.00;65034.22;4938293;29;20559;-46
2023/03/22 05:13:40;;;;;;;56.60;51.10;;;;;;;-141.22;100.00;65034.22;4937975;29;20433;-50
2023/03/22 05:16:09;;;;;;;56.80;51.67;;;;;;;-141.22;100.00;65034.22;4937377;29;20441;-43
2023/03/22 05:18:41;;;;;;;56.17;51.37;;;;;;;-141.22;100.00;65034.22;4937650;29;20791;-48
2023/03/22 05:21:14;;;;;;;57.23;52.23;;;;;;;-141.22;100.00;65034.22;4937744;29;20468;-46
2023/03/22 05:23:42;;;;;;;55.47;50.90;;;;;;;-141.22;100.00;65034.22;4937380;29;20440;-47
2023/03/22 05:26:14;;;;;;;55.77;50.77;;;;;;;-141.22;100.00;65034.22;4937031;29;20452;-49
2023/03/22 05:28:43;;;;;;;56.33;51.83;;;;;;;-141.22;100.00;65034.22;4937629;29;20439;-47
2023/03/22 05:31:14;;;;;;;55.30;50.53;;;;;;;-141.22;100.00;65034.22;4937211;29;20478;-44
2023/03/22 05:33:41;;;;;;;55.30;50.60;;;;;;;-141.22;100.00;65034.22;4936937;29;20425;-48
2023/03/22 05:36:12;;;;;;;55.57;50.60;;;;;;;-141.22;100.00;65034.22;4937206;29;20523;-47
2023/03/22 05:38:40;;;;;;;53.90;49.57;;;;;;;-141.22;100.00;65034.22;4937472;29;20432;-49
2023/03/22 05:41:08;;;;;;;53.53;48.77;;;;;;;-141.22;100.00;65034.22;4936804;29;20574;-51
2023/03/22 05:43:35;;;;;;;52.87;48.60;;;;;;;-141.22;100.00;65034.22;4936395;29;20596;-49
2023/03/22 05:46:05;;;;;;;52.40;47.90;;;;;;;-141.22;100.00;65034.22;4936665;28;20846;-48
2023/03/22 05:48:33;;;;;;;54.03;49.53;;;;;;;-141.22;100.00;65034.22;4937160;29;20444;-44
2023/03/22 05:51:02;;;;;;;52.63;48.07;;;;;;;-141.22;100.00;65034.22;4937027;29;20472;-47
2023/03/22 05:53:31;;;;;;;54.10;49.30;;;;;;;-141.22;100.00;65034.22;4936497;29;20462;-46
2023/03/22 05:56:00;;;;;;;52.93;48.63;;;;;;;-141.22;100.00;65034.22;4936175;28;20475;-47
2023/03/22 05:58:29;;;;;;;52.50;48.20;;;;;;;-141.22;100.00;65034.22;4936184;29;20443;-49
2023/03/22 06:00:59;;;;;;;52.77;48.43;;;;;;;-141.22;100.00;65034.22;4936595;29;20484;-47
2023/03/22 06:03:28;;;;;;;51.07;46.80;;;;;;;-141.22;100.00;65034.22;4936940;29;20994;-43
2023/03/22 06:05:55;;;;;;;51.43;47.13;;;;;;;-141.22;100.00;65034.22;4936384;28;20461;-46
2023/03/22 06:08:24;;;;;;;50.00;46.17;;;;;;;-141.22;100.00;65034.22;4936321;29;20907;-47
2023/03/22 06:10:54;;;;;;;51.90;47.40;;;;;;;-141.22;100.00;65034.22;4936393;29;20564;-46
2023/03/22 06:13:22;;;;;;;51.27;47.43;;;;;;;-141.22;100.00;65034.22;4940916;29;20432;-44
2023/03/22 06:15:50;;;;;;;52.37;47.67;;;;;;;-141.22;100.00;65034.22;4940172;28;20491;-44
2023/03/22 06:18:17;;;;;;;52.67;48.03;;;;;;;-141.22;100.00;65034.22;4940956;29;20432;-47
2023/03/22 06:20:45;;;;;;;52.00;47.70;;;;;;;-141.22;100.00;65034.22;4940867;29;20834;-45
2023/03/22 06:23:13;;;;;;;52.10;47.83;;;;;;;-141.22;100.00;65034.22;4940216;29;20806;-47
2023/03/22 06:25:40;;;;;;;49.03;45.27;;;;;;;-141.22;100.00;65034.22;4939183;28;20460;-47
2023/03/22 06:28:09;;;;;;;49.47;45.13;;;;;;;-141.22;100.00;65034.22;4940670;29;20437;-45
2023/03/22 06:30:37;;;;;;;50.90;46.57;;;;;;;-141.22;100.00;65034.22;4940562;29;20452;-48
2023/03/22 06:33:05;;;;;;;50.37;46.50;;;;;;;-141.22;100.00;65034.22;4940792;29;20457;-47
2023/03/22 06:35:34;;;;;;;51.13;47.10;;;;;;;-141.22;100.00;65034.22;4939825;28;20469;-47
2023/03/22 06:38:01;;;;;;;47.73;43.93;;;;;;;-141.22;100.00;65034.22;4940346;29;20437;-47
2023/03/22 06:40:29;;;;;;;46.93;43.40;;;;;;;-141.22;100.00;65034.22;4940339;29;20460;-46
2023/03/22 06:42:57;;;;;;;45.40;42.00;;;;;;;-141.22;100.00;65034.22;4939802;29;20433;-46
2023/03/22 06:45:32;;;;;;;45.93;42.33;;;;;;;-141.22;100.00;65034.22;4940098;28;20547;-47
2023/03/22 06:48:00;;;;;;;45.30;41.73;;;;;;;-141.22;100.00;65034.22;4940134;29;20429;-44
2023/03/22 06:50:29;;;;;;;45.37;41.97;;;;;;;-141.22;100.00;65034.22;4939693;29;20539;-44
2023/03/22 06:52:56;;;;;;;45.90;42.50;;;;;;;-141.22;100.00;65034.22;4939971;29;20472;-51
2023/03/22 06:55:25;;;;;;;43.77;40.40;;;;;;;-141.22;100.00;65034.22;4939531;28;20475;-44
2023/03/22 06:57:52;;;;;;;45.70;42.13;;;;;;;-141.22;100.00;65034.22;4940018;29;20492;-47
2023/03/22 07:00:20;;;;;;;44.63;41.13;;;;;;;-141.22;100.00;65034.22;4939691;29;20479;-45
2023/03/22 07:02:49;;;;;;;43.33;40.30;;;;;;;-141.22;100.00;65034.22;4939514;29;20449;-46
2023/03/22 07:05:19;;;;;;;43.40;40.20;;;;;;;-141.22;100.00;65034.22;4938917;28;20492;-46
2023/03/22 07:07:47;;;;;;;42.37;39.27;;;;;;;-141.22;100.00;65034.22;4939215;29;20437;-45
2023/03/22 07:10:14;;;;;;;43.67;40.37;;;;;;;-141.22;100.00;65034.22;4939353;29;20456;-45
2023/03/22 07:12:42;;;;;;;44.37;40.80;;;;;;;-141.22;100.00;65034.22;4938864;29;20472;-47
2023/03/22 07:15:11;;;;;;;44.97;41.67;;;;;;;-141.22;100.00;65034.22;4938055;28;20497;-52
2023/03/22 07:17:39;;;;;;;44.80;41.40;;;;;;;-141.22;100.00;65034.22;4938807;29;20460;-45
2023/03/22 07:20:09;;;;;;;43.80;40.70;;;;;;;-141.22;100.00;65034.22;4939190;29;20460;-50
2023/03/22 07:22:37;;;;;;;43.40;40.10;;;;;;;-141.22;100.00;65034.22;4938645;29;20433;-43
2023/03/22 07:25:05;;;;;;;43.40;40.30;;;;;;;-141.22;100.00;65034.22;4938503;28;20468;-47
2023/03/22 07:27:33;;;;;;;41.20;38.63;;;;;;;-141.22;100.00;65034.22;4938980;29;20443;-51
2023/03/22 07:30:01;;;;;;;42.70;39.30;;;;;;;-141.22;100.00;65034.22;4938598;29;20855;-48
2023/03/22 07:32:28;;;;;;;42.80;39.33;;;;;;;-141.22;100.00;65034.22;4938734;29;20536;-49
2023/03/22 07:34:56;;;;;;;41.67;38.90;;;;;;;-141.22;100.00;65034.22;4938148;28;20527;-45
2023/03/22 07:37:25;;;;;;;42.13;39.43;;;;;;;-141.22;100.00;65034.22;4938708;29;20459;-45
2023/03/22 07:39:53;;;;;;;42.80;39.87;;;;;;;-141.22;100.00;65034.22;4938374;29;20453;-44
2023/03/22 07:42:21;;;;;;;43.43;40.57;;;;;;;-141.22;100.00;65034.22;4937955;29;20437;-47
2023/03/22 07:44:49;;;;;;;40.93;38.20;;;;;;;-141.22;100.00;65034.22;4937854;28;20483;-50
2023/03/22 07:47:17;;;;;;;41.07;38.43;;;;;;;-141.22;100.00;65034.22;4938769;29;20470;-50
2023/03/22 07:49:57;;;;;;;41.53;38.53;;;;;;;-141.22;100.00;65034.22;4938044;29;21016;-48
2023/03/22 07:52:26;;;;;;;41.43;38.93;;;;;;;-141.22;100.00;65034.22;4937920;29;20477;-49
2023/03/22 07:54:54;;;;;;;40.03;37.63;;;;;;;-141.22;100.00;65034.22;4938164;28;20808;-46
2023/03/22 07:57:22;;;;;;;41.33;38.47;;;;;;;-141.22;100.00;65034.22;4937825;29;20439;-48
2023/03/22 07:59:49;;;;;;;38.83;36.10;;;;;;;-141.22;100.00;65034.22;4938177;29;20468;-51
2023/03/22 08:02:17;;;;;;;39.30;36.40;;;;;;;-141.22;100.00;65034.22;4938087;29;20432;-48
2023/03/22 08:04:45;;;;;;;39.77;37.00;;;;;;;-141.22;100.00;65034.22;4937865;28;20460;-47
2023/03/22 08:07:14;;;;;;;38.90;36.60;;;;;;;-141.22;100.00;65034.22;4938235;29;20807;-47
2023/03/22 08:09:43;;;;;;;39.20;36.90;;;;;;;-141.22;100.00;65034.22;4937908;29;20460;-46
2023/03/22 08:12:11;;;;;;;38.93;36.43;;;;;;;-141.22;100.00;65034.22;4938128;29;20483;-44
2023/03/22 08:14:38;;;;;;;38.80;35.73;;;;;;;-141.22;100.00;65034.22;4937214;28;21017;-44
2023/03/22 08:17:06;;;;;;;39.57;37.07;;;;;;;-141.22;100.00;65034.22;4938297;29;20449;-47
2023/03/22 08:19:34;;;;;;;37.53;35.40;;;;;;;-141.22;100.00;65034.22;4937599;29;20461;-50
2023/03/22 08:22:02;;;;;;;39.10;36.80;;;;;;;-141.22;100.00;65034.22;4937514;29;20433;-50
2023/03/22 08:24:30;;;;;;;39.93;37.50;;;;;;;-141.22;100.00;65034.22;4937334;28;20461;-49
2023/03/22 08:26:59;;;;;;;41.17;38.33;;;;;;;-141.22;100.00;65034.22;4937683;29;20808;-47
2023/03/22 08:29:27;;;;;;;39.53;37.17;;;;;;;-141.22;100.00;65034.22;4937238;29;20903;-52
2023/03/22 08:31:55;;;;;;;39.93;37.40;;;;;;;-141.22;100.00;65034.22;4937296;29;20496;-44
2023/03/22 08:34:22;;;;;;;39.60;37.20;;;;;;;-141.22;100.00;65034.22;4936470;28;20468;-50
2023/03/22 08:36:50;;;;;;;41.07;38.27;;;;;;;-141.22;100.00;65034.22;4937416;29;20781;-50
2023/03/22 08:39:18;;;;;;;42.13;39.20;;;;;;;-141.22;100.00;65034.22;4937804;29;20459;-45
2023/03/22 08:41:45;;;;;;;41.87;39.17;;;;;;;-141.22;100.00;65034.22;4937138;29;20835;-45
2023/03/22 08:44:14;;;;;;;41.10;38.53;;;;;;;-141.22;100.00;65034.22;4937108;28;20459;-47
2023/03/22 08:46:42;;;;;;;41.90;39.30;;;;;;;-141.22;100.00;65034.22;4937106;29;20480;-44
2023/03/22 08:49:10;;;;;;;42.80;39.90;;;;;;;-141.22;100.00;65034.22;4937077;29;20456;-44
2023/03/22 08:51:39;;;;;;;42.03;39.00;;;;;;;-141.22;100.00;65034.22;4936595;29;20439;-45
2023/03/22 08:54:07;;;;;;;44.27;41.57;;;;;;;-141.22;100.00;65034.22;4936366;28;20963;-50
2023/03/22 08:56:37;;;;;;;46.27;43.27;;;;;;;-141.22;100.00;65034.22;4937184;29;20492;-49
2023/03/22 08:59:05;;;;;;;43.70;41.00;;;;;;;-141.22;100.00;65034.22;4937139;29;20468;-50
2023/03/22 09:01:35;;;;;;;42.37;39.70;;;;;;;-141.22;100.00;65034.22;4936742;29;20508;-49
2023/03/22 09:04:03;;;;;;;45.17;42.20;;;;;;;-141.22;100.00;65034.22;4936032;28;20465;-49
2023/03/22 09:06:31;;;;;;;44.60;41.70;;;;;;;-141.22;100.00;65034.22;4937465;29;20439;-47
2023/03/22 09:08:59;;;;;;;43.43;40.77;;;;;;;-141.22;100.00;65034.22;4936985;29;21002;-47
2023/03/22 09:11:27;;;;;;;45.47;42.37;;;;;;;-141.22;100.00;65034.22;4936699;29;20437;-44
2023/03/22 09:13:55;;;;;;;44.80;41.70;;;;;;;-141.22;100.00;65034.22;4936888;28;20563;-46
2023/03/22 09:16:23;;;;;;;45.40;42.10;;;;;;;-141.22;100.00;65034.22;4936830;29;20496;-45
2023/03/22 09:18:52;;;;;;;46.20;42.80;;;;;;;-141.22;100.00;65034.22;4937460;29;20811;-46
2023/03/22 09:21:20;;;;;;;45.27;42.17;;;;;;;-141.22;100.00;65034.22;4936808;29;20429;-49
2023/03/22 09:23:49;;;;;;;45.07;42.10;;;;;;;-141.22;100.00;65034.22;4936216;28;20433;-49
2023/03/22 09:26:17;;;;;;;44.37;41.47;;;;;;;-141.22;100.00;65034.22;4936896;29;20440;-44
2023/03/22 09:28:45;;;;;;;44.17;41.17;;;;;;;-141.22;100.00;65034.22;4936514;29;20444;-46
2023/03/22 09:31:13;;;;;;;44.97;41.67;;;;;;;-141.22;100.00;65034.22;4936944;29;20856;-47
2023/03/22 09:33:42;;;;;;;46.07;43.03;;;;;;;-141.22;100.00;65034.22;4936284;29;20516;-46
2023/03/22 09:36:11;;;;;;;45.83;42.57;;;;;;;-141.22;100.00;65034.22;4933436;28;20503;-43
2023/03/22 09:38:40;;;;;;;45.03;41.50;;;;;;;-141.22;100.00;65034.22;4937000;29;20516;-47
2023/03/22 09:41:14;;;;;;;44.40;41.67;;;;;;;-141.22;100.00;65034.22;4936618;29;20436;-47
2023/03/22 09:43:48;;;;;;;48.20;45.00;;;;;;;-141.22;100.00;65034.22;4936898;29;20429;-44
2023/03/22 09:46:19;;;;;;;46.73;43.53;;;;;;;-141.22;100.00;65034.22;4938579;29;21185;-47
2023/03/22 09:48:48;;;;;;;44.50;41.80;;;;;;;-141.22;100.00;65034.22;4940846;29;20536;-47
2023/03/22 09:51:27;;;;;;;48.17;44.47;;;;;;;-141.22;100.00;65034.22;4939981;29;20491;-47
2023/03/22 09:53:55;;;;;;;45.50;42.23;;;;;;;-141.22;100.00;65034.22;4940192;28;20548;-46
2023/03/22 09:56:26;;;;;;;46.77;43.67;;;;;;;-141.22;100.00;65034.22;4941140;29;20465;-47
2023/03/22 09:58:59;;;;;;;48.53;44.77;;;;;;;-141.22;100.00;65034.22;4940575;29;20519;-44
2023/03/22 10:01:36;;;;;;;47.00;43.53;;;;;;;-141.22;100.00;65034.22;4940933;29;20838;-44
2023/03/22 10:04:26;;;;;;;46.00;42.70;;;;;;;-141.22;100.00;65034.22;4940487;28;20435;-45
2023/03/22 10:07:03;;;;;;;46.63;43.33;;;;;;;-141.22;100.00;65034.22;4941405;29;20437;-44
2023/03/22 10:09:40;;;;;;;45.67;42.53;;;;;;;-141.22;100.00;65034.22;4940822;29;20459;-47
2023/03/22 10:12:16;;;;;;;47.73;44.53;;;;;;;-141.22;100.00;65034.22;4940161;29;20440;-44
2023/03/22 10:14:50;;;;;;;48.33;44.93;;;;;;;-141.22;100.00;65034.22;4940047;28;21013;-44
2023/03/22 10:17:24;;;;;;;48.97;45.60;;;;;;;-141.22;100.00;65034.22;4940051;29;20503;-46
2023/03/22 10:19:55;;;;;;;46.97;43.60;;;;;;;-141.22;100.00;65034.22;4940391;29;20460;-47
2023/03/22 10:22:29;;;;;;;45.83;42.87;;;;;;;-141.22;100.00;65034.22;4940108;29;20439;-48
2023/03/22 10:24:57;;;;;;;46.10;42.90;;;;;;;-141.22;100.00;65034.22;4939299;28;20475;-50
2023/03/22 10:27:28;;;;;;;47.33;43.60;;;;;;;-141.22;100.00;65034.22;4939447;29;20448;-48
2023/03/22 10:30:01;;;;;;;45.47;42.33;;;;;;;-141.22;100.00;65034.22;4939413;29;20463;-44
2023/03/22 10:32:36;;;;;;;45.30;42.37;;;;;;;-141.22;100.00;65034.22;4939270;29;20444;-44
2023/03/22 10:35:23;;;;;;;46.53;43.37;;;;;;;-141.22;100.00;65034.22;4939180;28;20512;-49
2023/03/22 10:37:53;;;;;;;44.80;41.70;;;;;;;-141.22;100.00;65034.22;4939466;29;20433;-44
2023/03/22 10:40:24;;;;;;;44.80;41.70;;;;;;;-141.22;100.00;65034.22;4939425;29;20468;-43
2023/03/22 10:42:55;;;;;;;44.73;41.73;;;;;;;-141.22;100.00;65034.22;4938854;29;20429;-45
2023/03/22 10:45:24;;;;;;;44.70;41.67;;;;;;;-141.22;100.00;65034.22;4939223;28;20551;-45
2023/03/22 10:47:59;;;;;;;42.37;39.70;;;;;;;-141.22;100.00;65034.22;4939252;29;20433;-47
2023/03/22 10:50:31;;;;;;;43.13;40.00;;;;;;;-141.22;100.00;65034.22;4939250;29;20482;-46
2023/03/22 10:53:05;;;;;;;40.87;38.43;;;;;;;-141.22;100.00;65034.22;4938984;29;20456;-47
2023/03/22 10:55:32;;;;;;;41.13;38.57;;;;;;;-141.22;100.00;65034.22;4938825;28;20842;-44
2023/03/22 10:58:12;;;;;;;43.03;40.30;;;;;;;-141.22;100.00;65034.22;4938867;29;20934;-46
2023/03/22 11:00:44;;;;;;;42.70;39.70;;;;;;;-141.22;100.00;65034.22;4939442;29;20476;-47
2023/03/22 11:03:26;;;;;;;41.63;39.23;;;;;;;-141.22;100.00;65034.22;4939407;29;20456;-48
2023/03/22 11:06:00;;;;;;;39.00;36.50;;;;;;;-141.22;100.00;65034.22;4938859;28;20974;-44
2023/03/22 11:08:29;;;;;;;40.37;37.73;;;;;;;-141.22;100.00;65034.22;4939175;29;20484;-44
2023/03/22 11:10:59;;;;;;;40.50;37.90;;;;;;;-141.22;100.00;65034.22;4939058;29;20480;-44
2023/03/22 11:13:27;;;;;;;40.83;38.30;;;;;;;-141.22;100.00;65034.22;4938705;29;20851;-46
2023/03/22 11:16:01;;;;;;;39.47;37.13;;;;;;;-141.22;100.00;65034.22;4938671;28;20838;-46